createdAt,value
2023-05-22T00:01:17.977Z,7.60
2023-05-22T00:03:46.979Z,8.10
2023-05-22T00:06:15.272Z,7.27
2023-05-22T00:08:43.966Z,7.80
2023-05-22T00:11:13.590Z,7.87
2023-05-22T00:13:42.272Z,7.37
2023-05-22T00:16:12.753Z,7.23
2023-05-22T00:18:42.450Z,7.37
2023-05-22T00:21:10.880Z,7.37
2023-05-22T00:23:38.985Z,7.73
2023-05-22T00:26:15.038Z,7.80
2023-05-22T00:28:44.669Z,7.97
2023-05-22T00:31:13.867Z,8.37
2023-05-22T00:33:42.072Z,7.40
2023-05-22T00:36:11.367Z,7.73
2023-05-22T00:38:39.549Z,7.60
2023-05-22T00:41:08.973Z,7.30
2023-05-22T00:43:37.261Z,7.97
2023-05-22T00:46:08.080Z,8.30
2023-05-22T00:48:39.445Z,8.63
2023-05-22T00:51:09.408Z,8.20
2023-05-22T00:53:38.175Z,8.13
2023-05-22T00:56:07.381Z,7.80
2023-05-22T00:58:36.961Z,7.80
2023-05-22T01:01:07.757Z,8.13
2023-05-22T01:03:38.051Z,7.77
2023-05-22T01:06:07.024Z,7.30
2023-05-22T01:08:35.972Z,7.53
2023-05-22T01:11:10.492Z,7.90
2023-05-22T01:13:47.556Z,7.47
2023-05-22T01:16:26.157Z,7.33
2023-05-22T01:19:05.011Z,7.87
2023-05-22T01:21:46.288Z,7.53
2023-05-22T01:24:43.998Z,7.47
2023-05-22T01:27:35.269Z,7.93
2023-05-22T01:30:21.007Z,7.87
2023-05-22T01:32:52.204Z,8.47
2023-05-22T01:35:25.999Z,8.17
2023-05-22T01:37:56.011Z,8.17
2023-05-22T01:40:26.968Z,7.27
2023-05-22T01:42:55.140Z,7.77
2023-05-22T01:45:27.169Z,8.23
2023-05-22T01:47:57.117Z,8.27
2023-05-22T01:50:26.622Z,8.07
2023-05-22T01:53:01.669Z,8.50
2023-05-22T01:55:36.229Z,7.77
2023-05-22T01:58:14.016Z,8.50
2023-05-22T02:00:45.984Z,7.97
2023-05-22T02:03:20.116Z,8.23
2023-05-22T02:05:55.315Z,8.13
2023-05-22T02:08:28.059Z,8.17
2023-05-22T02:10:57.880Z,8.20
2023-05-22T02:13:26.197Z,8.13
2023-05-22T02:15:56.265Z,8.37
2023-05-22T02:18:29.720Z,8.40
2023-05-22T02:20:58.302Z,8.63
2023-05-22T02:23:26.772Z,8.33
2023-05-22T02:25:57.700Z,8.67
2023-05-22T02:28:29.059Z,8.27
2023-05-22T02:30:57.253Z,8.47
2023-05-22T02:33:25.387Z,8.80
2023-05-22T02:35:57.254Z,8.00
2023-05-22T02:38:25.676Z,8.20
2023-05-22T02:40:53.799Z,8.57
2023-05-22T02:43:23.359Z,8.17
2023-05-22T02:45:52.342Z,8.43
2023-05-22T02:48:20.481Z,8.47
2023-05-22T02:50:49.626Z,8.13
2023-05-22T02:53:19.382Z,8.93
2023-05-22T02:55:48.435Z,8.27
2023-05-22T02:58:19.314Z,7.70
2023-05-22T03:00:47.472Z,9.07
2023-05-22T03:03:19.191Z,8.77
2023-05-22T03:05:47.470Z,9.30
2023-05-22T03:08:16.688Z,9.07
2023-05-22T03:10:47.849Z,8.83
2023-05-22T03:13:17.049Z,8.43
2023-05-22T03:15:45.342Z,8.57
2023-05-22T03:18:17.025Z,8.37
2023-05-22T03:20:47.563Z,8.60
2023-05-22T03:23:15.779Z,8.63
2023-05-22T03:25:45.046Z,9.10
2023-05-22T03:28:16.018Z,8.57
2023-05-22T03:30:45.229Z,8.80
2023-05-22T03:33:19.825Z,9.17
2023-05-22T03:35:51.203Z,9.30
2023-05-22T03:38:23.318Z,8.33
2023-05-22T03:40:51.519Z,9.10
2023-05-22T03:43:22.058Z,8.37
2023-05-22T03:45:52.061Z,8.80
2023-05-22T03:48:22.063Z,8.50
2023-05-22T03:50:50.314Z,8.10
2023-05-22T03:53:19.069Z,8.40
2023-05-22T03:55:47.203Z,7.97
2023-05-22T03:58:16.068Z,7.80
2023-05-22T04:00:48.094Z,7.70
2023-05-22T04:03:19.609Z,7.80
2023-05-22T04:05:49.084Z,7.93
2023-05-22T04:08:17.220Z,7.73
2023-05-22T04:10:48.701Z,7.53
2023-05-22T04:13:19.080Z,7.60
2023-05-22T04:15:50.071Z,8.00
2023-05-22T04:18:18.891Z,7.93
2023-05-22T04:20:48.062Z,8.00
2023-05-22T04:23:16.202Z,7.40
2023-05-22T04:25:45.102Z,7.60
2023-05-22T04:28:13.288Z,7.47
2023-05-22T04:30:42.273Z,7.70
2023-05-22T04:33:13.157Z,7.77
2023-05-22T04:35:42.432Z,7.43
2023-05-22T04:38:13.508Z,7.40
2023-05-22T04:40:44.696Z,7.00
2023-05-22T04:43:13.850Z,7.47
2023-05-22T04:45:43.050Z,7.40
2023-05-22T04:48:13.743Z,7.50
2023-05-22T04:50:42.301Z,7.13
2023-05-22T04:53:16.620Z,7.87
2023-05-22T04:55:48.536Z,7.33
2023-05-22T04:58:19.336Z,6.87
2023-05-22T05:00:47.598Z,7.00
2023-05-22T05:03:17.306Z,6.53
2023-05-22T05:05:45.952Z,7.17
2023-05-22T05:08:17.318Z,6.80
2023-05-22T05:10:48.510Z,6.80
2023-05-22T05:13:16.936Z,6.53
2023-05-22T05:15:46.834Z,7.13
2023-05-22T05:18:17.087Z,6.77
2023-05-22T05:20:45.392Z,6.47
2023-05-22T05:23:15.442Z,6.60
2023-05-22T05:25:44.001Z,6.20
2023-05-22T05:28:12.799Z,9.43
2023-05-22T05:30:42.950Z,10.57
2023-05-22T05:33:25.924Z,6.70
2023-05-22T05:36:12.896Z,6.73
2023-05-22T05:38:41.975Z,6.10
2023-05-22T05:41:10.711Z,6.07
2023-05-22T05:43:39.398Z,5.47
2023-05-22T05:46:09.769Z,6.03
2023-05-22T05:48:40.143Z,5.87
2023-05-22T05:51:09.235Z,5.73
2023-05-22T05:53:43.719Z,5.23
2023-05-22T05:56:15.419Z,5.73
2023-05-22T05:58:43.890Z,5.47
2023-05-22T06:01:32.965Z,5.83
2023-05-22T06:04:04.327Z,5.40
2023-05-22T06:06:36.481Z,6.17
2023-05-22T06:09:07.856Z,5.00
2023-05-22T06:11:57.724Z,4.60
2023-05-22T06:14:26.277Z,5.60
2023-05-22T06:16:54.989Z,4.60
2023-05-22T06:19:28.344Z,4.93
2023-05-22T06:21:56.951Z,5.73
2023-05-22T06:24:26.158Z,4.53
2023-05-22T06:26:54.406Z,4.50
2023-05-22T06:29:23.054Z,4.27
2023-05-22T06:31:52.783Z,4.20
2023-05-22T06:34:28.074Z,4.33
2023-05-22T06:36:57.864Z,4.10
2023-05-22T06:39:32.945Z,4.70
2023-05-22T06:42:07.601Z,4.70
2023-05-22T06:44:54.297Z,4.40
2023-05-22T06:47:27.018Z,8.70
2023-05-22T06:49:56.725Z,6.43
2023-05-22T06:52:24.856Z,4.47
2023-05-22T06:54:56.128Z,7.33
2023-05-22T06:57:26.124Z,8.70
2023-05-22T06:59:55.138Z,5.63
2023-05-22T07:02:41.680Z,4.70
2023-05-22T07:05:29.728Z,4.00
2023-05-22T07:08:02.385Z,4.73
2023-05-22T07:10:31.340Z,5.63
2023-05-22T07:13:01.575Z,5.43
2023-05-22T07:15:34.413Z,11.37
2023-05-22T07:18:05.055Z,4.93
2023-05-22T07:20:39.013Z,8.20
2023-05-22T07:23:15.002Z,4.55
2023-05-22T07:25:45.851Z,4.53
2023-05-22T07:28:16.260Z,3.73
2023-05-22T07:30:54.330Z,5.82
2023-05-22T07:33:23.199Z,4.75
2023-05-22T07:35:52.959Z,3.92
2023-05-22T07:38:21.631Z,3.60
2023-05-22T07:40:57.864Z,3.50
2023-05-22T07:43:27.780Z,3.28
2023-05-22T07:45:57.357Z,3.35
2023-05-22T07:48:30.600Z,3.83
2023-05-22T07:51:00.572Z,2.90
2023-05-22T07:53:28.744Z,2.80
2023-05-22T07:56:02.400Z,2.63
2023-05-22T07:58:35.185Z,2.80
2023-05-22T08:01:05.806Z,5.15
2023-05-22T08:03:36.407Z,3.47
2023-05-22T08:06:06.393Z,2.45
2023-05-22T08:08:34.824Z,2.75
2023-05-22T08:11:04.531Z,2.47
2023-05-22T08:13:33.140Z,2.30
2023-05-22T08:16:01.783Z,2.40
2023-05-22T08:18:30.513Z,2.80
2023-05-22T08:21:01.376Z,5.47
2023-05-22T08:23:32.774Z,2.30
2023-05-22T08:26:00.998Z,2.40
2023-05-22T08:28:29.095Z,3.17
2023-05-22T08:30:57.261Z,2.47
2023-05-22T08:33:25.381Z,2.45
2023-05-22T08:35:53.632Z,2.60
2023-05-22T08:38:24.788Z,2.38
2023-05-22T08:40:55.596Z,2.85
2023-05-22T08:43:25.142Z,2.58
2023-05-22T08:45:57.917Z,2.67
2023-05-22T08:48:31.058Z,2.55
2023-05-22T08:51:04.825Z,2.40
2023-05-22T08:53:38.857Z,2.85
2023-05-22T08:56:09.578Z,2.58
2023-05-22T08:58:39.104Z,2.60
2023-05-22T09:01:11.170Z,2.33
2023-05-22T09:03:40.013Z,3.20
2023-05-22T09:06:10.447Z,2.58
2023-05-22T09:08:39.440Z,2.50
2023-05-22T09:11:08.911Z,2.10
2023-05-22T09:13:44.737Z,2.20
2023-05-22T09:16:14.499Z,2.30
2023-05-22T09:18:43.388Z,16.65
2023-05-22T09:21:28.644Z,5.55
2023-05-22T09:24:01.861Z,2.60
2023-05-22T09:26:33.000Z,4.60
2023-05-22T09:29:01.841Z,2.85
2023-05-22T09:31:30.754Z,3.60
2023-05-22T09:33:59.575Z,11.80
2023-05-22T09:36:33.585Z,6.80
2023-05-22T09:39:02.480Z,2.40
2023-05-22T09:41:36.922Z,2.28
2023-05-22T09:44:16.301Z,2.10
2023-05-22T09:46:47.815Z,4.40
2023-05-22T09:49:17.628Z,3.13
2023-05-22T09:51:48.931Z,2.58
2023-05-22T09:54:22.032Z,2.17
2023-05-22T09:56:56.077Z,2.15
2023-05-22T09:59:31.471Z,2.72
2023-05-22T10:02:01.895Z,2.35
2023-05-22T10:04:34.791Z,3.00
2023-05-22T10:07:04.431Z,4.40
2023-05-22T10:09:36.491Z,2.70
2023-05-22T10:12:08.738Z,3.22
2023-05-22T10:14:37.417Z,2.05
2023-05-22T10:17:07.061Z,2.30
2023-05-22T10:19:40.357Z,2.47
2023-05-22T10:22:20.708Z,2.75
2023-05-22T10:25:14.414Z,4.20
2023-05-22T10:27:43.933Z,3.25
2023-05-22T10:30:24.280Z,2.17
2023-05-22T10:33:30.950Z,1.88
2023-05-22T10:36:08.666Z,2.40
2023-05-22T10:38:54.066Z,2.42
2023-05-22T10:41:23.523Z,2.40
2023-05-22T10:43:53.118Z,2.53
2023-05-22T10:46:21.481Z,2.10
2023-05-22T10:48:53.123Z,2.05
2023-05-22T10:51:22.933Z,2.25
2023-05-22T10:53:54.359Z,2.33
2023-05-22T10:56:25.738Z,2.47
2023-05-22T10:58:59.272Z,2.22
2023-05-22T11:01:28.506Z,2.38
2023-05-22T11:04:14.814Z,2.20
2023-05-22T11:06:48.935Z,2.00
2023-05-22T11:09:22.877Z,2.83
2023-05-22T11:12:20.382Z,2.35
2023-05-22T11:14:57.689Z,2.35
2023-05-22T11:17:28.356Z,2.28
2023-05-22T11:20:01.429Z,2.20
2023-05-22T11:22:35.071Z,2.28
2023-05-22T11:25:08.388Z,2.30
2023-05-22T11:27:37.594Z,2.30
2023-05-22T11:30:11.426Z,2.08
2023-05-22T11:32:40.895Z,2.30
2023-05-22T11:35:09.815Z,2.45
2023-05-22T11:37:42.650Z,2.83
2023-05-22T11:40:16.149Z,2.38
2023-05-22T11:42:45.418Z,2.00
2023-05-22T11:45:15.244Z,2.40
2023-05-22T11:47:47.082Z,2.28
2023-05-22T11:50:22.574Z,2.13
2023-05-22T11:52:56.680Z,2.40
2023-05-22T11:55:25.432Z,2.45
2023-05-22T11:57:55.803Z,2.20
2023-05-22T12:00:26.422Z,2.30
2023-05-22T12:02:56.508Z,2.22
2023-05-22T12:05:24.825Z,2.38
2023-05-22T12:07:53.637Z,2.60
2023-05-22T12:10:21.882Z,2.70
2023-05-22T12:12:50.112Z,2.42
2023-05-22T12:15:21.220Z,2.30
2023-05-22T12:17:51.468Z,2.17
2023-05-22T12:20:21.375Z,2.20
2023-05-22T12:22:50.683Z,2.30
2023-05-22T12:25:20.426Z,2.45
2023-05-22T12:27:49.175Z,2.17
2023-05-22T12:30:18.030Z,2.20
2023-05-22T12:32:51.882Z,2.20
2023-05-22T12:35:20.665Z,2.17
2023-05-22T12:37:53.410Z,2.03
2023-05-22T12:40:21.553Z,2.22
2023-05-22T12:42:50.088Z,1.80
2023-05-22T12:45:18.785Z,2.40
2023-05-22T12:47:47.483Z,2.20
2023-05-22T12:50:17.788Z,2.13
2023-05-22T12:52:46.066Z,3.55
2023-05-22T12:55:14.264Z,4.18
2023-05-22T12:57:42.573Z,2.25
2023-05-22T13:00:11.519Z,2.80
2023-05-22T13:02:41.448Z,2.90
2023-05-22T13:05:09.965Z,3.53
2023-05-22T13:07:43.284Z,2.40
2023-05-22T13:10:11.942Z,2.60
2023-05-22T13:12:40.441Z,2.35
2023-05-22T13:15:11.706Z,2.50
2023-05-22T13:17:39.875Z,2.08
2023-05-22T13:20:12.451Z,3.08
2023-05-22T13:22:42.774Z,2.40
2023-05-22T13:25:11.169Z,2.15
2023-05-22T13:27:39.432Z,1.98
2023-05-22T13:30:08.553Z,1.90
2023-05-22T13:32:36.786Z,2.10
2023-05-22T13:35:07.152Z,1.98
2023-05-22T13:37:35.320Z,2.03
2023-05-22T13:40:05.256Z,1.70
2023-05-22T13:42:33.715Z,1.90
2023-05-22T13:45:01.960Z,2.22
2023-05-22T13:47:30.198Z,2.20
2023-05-22T13:49:58.851Z,2.20
2023-05-22T13:52:27.129Z,2.08
2023-05-22T13:54:56.069Z,1.75
2023-05-22T13:57:25.602Z,2.17
2023-05-22T13:59:54.256Z,2.20
2023-05-22T14:05:12.615Z,3.05
2023-05-22T14:07:42.454Z,2.53
2023-05-22T14:10:11.728Z,2.28
2023-05-22T14:12:43.045Z,2.20
2023-05-22T14:15:11.866Z,2.20
2023-05-22T14:17:40.179Z,2.10
2023-05-22T14:20:09.409Z,2.50
2023-05-22T14:22:55.255Z,1.98
2023-05-22T14:25:27.197Z,2.30
2023-05-22T14:27:56.886Z,2.40
2023-05-22T14:30:25.116Z,1.98
2023-05-22T14:32:53.612Z,2.35
2023-05-22T14:35:21.871Z,15.88
2023-05-22T14:37:50.126Z,4.22
2023-05-22T14:40:18.551Z,2.40
2023-05-22T14:42:47.123Z,1.90
2023-05-22T14:45:16.849Z,2.33
2023-05-22T14:47:45.198Z,2.30
2023-05-22T14:50:19.678Z,2.50
2023-05-22T14:52:48.347Z,2.30
2023-05-22T14:55:16.663Z,2.33
2023-05-22T14:57:44.885Z,2.50
2023-05-22T15:00:14.302Z,2.08
2023-05-22T15:02:43.823Z,2.25
2023-05-22T15:05:12.118Z,2.13
2023-05-22T15:07:45.376Z,2.05
2023-05-22T15:10:14.479Z,2.10
2023-05-22T15:12:42.642Z,2.10
2023-05-22T15:15:11.626Z,2.03
2023-05-22T15:17:42.372Z,1.83
2023-05-22T15:20:14.502Z,2.00
2023-05-22T15:22:45.100Z,1.90
2023-05-22T15:25:15.637Z,1.85
2023-05-22T15:27:46.310Z,2.00
2023-05-22T15:30:17.706Z,1.60
2023-05-22T15:32:46.671Z,1.85
2023-05-22T15:35:17.548Z,2.00
2023-05-22T15:37:45.795Z,2.20
2023-05-22T15:40:17.269Z,2.08
2023-05-22T15:42:46.540Z,1.80
2023-05-22T15:45:14.753Z,2.50
2023-05-22T15:47:44.584Z,1.92
2023-05-22T15:50:12.747Z,1.98
2023-05-22T15:52:47.291Z,2.28
2023-05-22T15:55:15.486Z,1.88
2023-05-22T15:57:44.518Z,2.33
2023-05-22T16:00:16.068Z,2.15
2023-05-22T16:02:46.005Z,1.98
2023-05-22T16:05:15.244Z,2.40
2023-05-22T16:07:45.557Z,2.30
2023-05-22T16:10:14.551Z,2.03
2023-05-22T16:12:42.795Z,2.00
2023-05-22T16:15:11.933Z,1.90
2023-05-22T16:17:40.480Z,2.05
2023-05-22T16:20:10.939Z,1.80
2023-05-22T16:22:48.283Z,1.90
2023-05-22T16:25:19.702Z,2.13
2023-05-22T16:27:48.577Z,2.17
2023-05-22T16:30:18.554Z,2.33
2023-05-22T16:32:48.688Z,1.90
2023-05-22T16:35:19.510Z,2.33
2023-05-22T16:37:47.769Z,2.10
2023-05-22T16:40:16.598Z,1.98
2023-05-22T16:42:46.304Z,2.05
2023-05-22T16:45:17.813Z,2.00
2023-05-22T16:47:48.679Z,1.90
2023-05-22T16:50:17.024Z,2.10
2023-05-22T16:52:45.255Z,2.22
2023-05-22T16:55:13.554Z,2.00
2023-05-22T16:57:46.448Z,2.40
2023-05-22T17:00:16.540Z,2.30
2023-05-22T17:02:44.987Z,2.13
2023-05-22T17:05:13.245Z,2.42
2023-05-22T17:07:41.449Z,2.40
2023-05-22T17:10:13.373Z,2.00
2023-05-22T17:12:44.774Z,2.17
2023-05-22T17:15:14.640Z,2.30
2023-05-22T17:17:46.159Z,2.25
2023-05-22T17:20:14.585Z,2.45
2023-05-22T17:22:44.743Z,2.50
2023-05-22T17:25:15.218Z,2.17
2023-05-22T17:27:43.468Z,2.20
2023-05-22T17:30:16.221Z,2.42
2023-05-22T17:32:45.188Z,2.08
2023-05-22T17:35:13.600Z,2.72
2023-05-22T17:37:42.629Z,2.38
2023-05-22T17:40:15.128Z,3.22
2023-05-22T17:42:44.404Z,2.60
2023-05-22T17:45:13.702Z,2.50
2023-05-22T17:47:43.221Z,4.13
2023-05-22T17:50:12.418Z,3.38
2023-05-22T17:52:44.719Z,10.82
2023-05-22T17:55:12.944Z,7.55
2023-05-22T17:57:44.632Z,3.00
2023-05-22T18:00:14.564Z,3.00
2023-05-22T18:02:45.720Z,2.33
2023-05-22T18:05:14.034Z,2.53
2023-05-22T18:07:45.229Z,2.75
2023-05-22T18:10:13.448Z,2.30
2023-05-22T18:12:41.834Z,2.40
2023-05-22T18:15:12.007Z,3.03
2023-05-22T18:17:41.375Z,2.63
2023-05-22T18:20:12.801Z,2.35
2023-05-22T18:22:41.535Z,2.42
2023-05-22T18:25:11.101Z,2.70
2023-05-22T18:27:39.412Z,2.58
2023-05-22T18:30:10.252Z,2.70
2023-05-22T18:32:38.618Z,2.45
2023-05-22T18:35:07.640Z,2.63
2023-05-22T18:37:37.821Z,2.70
2023-05-22T18:40:09.264Z,2.45
2023-05-22T18:42:37.633Z,3.28
2023-05-22T18:45:07.498Z,3.00
2023-05-22T18:47:38.732Z,2.80
2023-05-22T18:50:07.974Z,2.63
2023-05-22T18:52:37.995Z,4.45
2023-05-22T18:55:07.674Z,21.73
2023-05-22T18:57:35.770Z,63.63
2023-05-22T19:00:11.369Z,22.88
2023-05-22T19:02:39.487Z,20.25
2023-05-22T19:05:08.376Z,14.32
2023-05-22T19:07:38.044Z,8.55
2023-05-22T19:10:08.205Z,4.70
2023-05-22T19:12:36.757Z,4.40
2023-05-22T19:15:06.202Z,3.72
2023-05-22T19:17:34.412Z,4.10
2023-05-22T19:20:06.291Z,17.65
2023-05-22T19:22:35.325Z,52.47
2023-05-22T19:25:08.830Z,16.38
2023-05-22T19:27:39.109Z,13.37
2023-05-22T19:30:10.841Z,8.40
2023-05-22T19:32:42.801Z,6.20
2023-05-22T19:35:12.025Z,17.40
2023-05-22T19:37:40.489Z,24.20
2023-05-22T19:40:11.363Z,29.53
2023-05-22T19:42:43.758Z,13.53
2023-05-22T19:45:14.667Z,8.40
2023-05-22T19:47:51.226Z,6.57
2023-05-22T19:50:20.577Z,5.53
2023-05-22T19:52:49.098Z,4.80
2023-05-22T19:55:19.022Z,5.70
2023-05-22T19:57:47.223Z,5.20
2023-05-22T20:00:19.770Z,5.30
2023-05-22T20:02:48.088Z,5.27
2023-05-22T20:05:16.404Z,6.00
2023-05-22T20:07:45.738Z,5.17
2023-05-22T20:10:19.207Z,5.63
2023-05-22T20:12:48.753Z,4.77
2023-05-22T20:15:17.783Z,4.80
2023-05-22T20:17:47.525Z,4.70
2023-05-22T20:20:16.838Z,5.30
2023-05-22T20:22:45.062Z,5.00
2023-05-22T20:25:15.411Z,5.07
2023-05-22T20:27:44.948Z,5.10
2023-05-22T20:30:13.987Z,4.87
2023-05-22T20:32:45.693Z,5.43
2023-05-22T20:35:14.451Z,5.40
2023-05-22T20:37:43.342Z,4.90
2023-05-22T20:40:12.103Z,5.10
2023-05-22T20:42:41.732Z,6.23
2023-05-22T20:45:14.585Z,13.57
2023-05-22T20:47:43.967Z,9.33
2023-05-22T20:50:12.769Z,5.50
2023-05-22T20:52:42.724Z,25.37
2023-05-22T20:55:14.388Z,12.13
2023-05-22T20:57:42.596Z,5.80
2023-05-22T21:00:14.774Z,5.30
2023-05-22T21:02:42.986Z,5.30
2023-05-22T21:05:11.728Z,4.50
2023-05-22T21:07:42.421Z,5.17
2023-05-22T21:10:11.632Z,5.27
2023-05-22T21:12:39.829Z,5.50
2023-05-22T21:15:10.753Z,5.30
2023-05-22T21:17:43.526Z,5.57
2023-05-22T21:20:12.399Z,5.40
2023-05-22T21:22:40.495Z,5.23
2023-05-22T21:25:10.292Z,5.43
2023-05-22T21:27:38.452Z,5.47
2023-05-22T21:30:07.469Z,5.17
2023-05-22T21:32:39.902Z,6.03
2023-05-22T21:35:09.788Z,5.40
2023-05-22T21:37:37.969Z,5.20
2023-05-22T21:40:07.708Z,4.87
2023-05-22T21:42:46.357Z,8.10
2023-05-22T21:45:15.748Z,13.10
2023-05-22T21:47:47.787Z,18.77
2023-05-22T21:50:19.321Z,9.00
2023-05-22T21:52:47.467Z,6.87
2023-05-22T21:55:16.773Z,6.53
2023-05-22T21:57:45.784Z,6.30
2023-05-22T22:00:15.278Z,6.13
2023-05-22T22:02:47.505Z,6.30
2023-05-22T22:05:15.956Z,6.70
2023-05-22T22:07:44.783Z,7.00
2023-05-22T22:10:12.946Z,6.90
2023-05-22T22:12:43.370Z,6.83
2023-05-22T22:15:13.017Z,6.73
2023-05-22T22:17:42.839Z,6.80
2023-05-22T22:20:12.903Z,6.20
2023-05-22T22:22:41.809Z,6.07
2023-05-22T22:25:11.363Z,6.57
2023-05-22T22:27:39.605Z,6.20
2023-05-22T22:30:09.941Z,6.10
2023-05-22T22:32:38.204Z,6.00
2023-05-22T22:35:08.147Z,6.27
2023-05-22T22:37:39.248Z,5.63
2023-05-22T22:40:09.248Z,6.63
2023-05-22T22:42:38.797Z,6.57
2023-05-22T22:45:09.724Z,6.40
2023-05-22T22:47:38.716Z,5.83
2023-05-22T22:50:08.719Z,6.40
2023-05-22T22:52:38.312Z,6.30
2023-05-22T22:55:07.877Z,5.83
2023-05-22T22:57:36.817Z,5.87
2023-05-22T23:00:06.654Z,6.77
2023-05-22T23:02:34.796Z,6.50
2023-05-22T23:05:03.927Z,6.57
2023-05-22T23:07:35.786Z,6.40
2023-05-22T23:10:05.924Z,6.93
2023-05-22T23:12:36.839Z,5.77
2023-05-22T23:15:06.080Z,6.43
2023-05-22T23:17:34.243Z,7.53
2023-05-22T23:20:02.851Z,7.07
2023-05-22T23:22:31.043Z,6.77
2023-05-22T23:24:59.824Z,6.70
2023-05-22T23:27:29.333Z,7.40
2023-05-22T23:29:57.955Z,6.90
2023-05-22T23:32:26.192Z,7.40
2023-05-22T23:34:54.747Z,7.40
2023-05-22T23:37:23.825Z,6.93
2023-05-22T23:39:52.583Z,6.70
2023-05-22T23:42:21.839Z,6.37
2023-05-22T23:44:51.340Z,6.60
2023-05-22T23:47:20.033Z,6.57
2023-05-22T23:49:51.579Z,7.47
2023-05-22T23:52:19.666Z,7.00
2023-05-22T23:54:48.815Z,6.60
2023-05-22T23:57:17.842Z,6.83
2023-05-22T23:59:47.432Z,6.80
